Terminal Aerodrome Forecast
Issued by NWS

Home | Current Version | Previous Version | Text Only | Print | Product List | Glossary On
Versions: 1 2 3 4 5 6 7 8 9 10 11 12 13 14 15 16 17 18 19 20 21 22
000
FTUS41 KCAR 261734
TAFFVE
TAF
KFVE 261734Z 2618/2718 01007KT 6SM -SHRA BKN025 OVC035
     FM270400 36006KT 3SM -SHRASN BKN009 OVC012
     FM271000 02010KT 5SM -SHRA SCT009 OVC015
     FM271600 04012G22KT P6SM OVC015=

USA.gov is the U.S. government's official web portal to all federal, state and local government web resources and services.